Time;durP1;ratioP1;P1;durP2;ratioP2;P2;SDS_P1;SDS_P2;PMS_P1;PMS_P2;Temp;Humidity;BMP_temperature;BMP_pressure;BME280_temperature;BME280_humidity;BME280_pressure;Samples;Min_cycle;Max_cycle;Signal;HPM_P1;HPM_P2
2022/01/12 00:01:20;;;;;;;26.33;16.43;;;3.60;99.90;;;;;;5025555;28;20597;-25
2022/01/12 00:03:50;;;;;;;28.30;16.77;;;3.60;99.90;;;;;;5028549;28;20905;-26
2022/01/12 00:06:17;;;;;;;28.80;17.53;;;3.60;99.90;;;;;;5028173;28;20229;-26
2022/01/12 00:08:46;;;;;;;27.57;17.30;;;3.60;99.90;;;;;;5028288;28;20201;-26
2022/01/12 00:11:17;;;;;;;26.90;17.50;;;3.60;99.90;;;;;;5027820;28;20228;-27
2022/01/12 00:13:44;;;;;;;31.60;17.60;;;3.60;99.90;;;;;;5028511;28;20228;-26
2022/01/12 00:16:12;;;;;;;26.83;16.03;;;3.60;99.90;;;;;;5028002;28;20564;-27
2022/01/12 00:18:39;;;;;;;27.97;16.20;;;3.60;99.90;;;;;;5027879;28;20201;-27
2022/01/12 00:21:08;;;;;;;29.10;16.90;;;3.60;99.90;;;;;;5027897;28;20295;-26
2022/01/12 00:23:41;;;;;;;28.83;16.90;;;3.60;99.90;;;;;;5028003;28;20221;-27
2022/01/12 00:34:35;;;;;;;26.40;16.57;;;3.70;99.90;;;;;;5028123;28;20323;-26
2022/01/12 00:37:02;;;;;;;30.37;17.47;;;3.70;99.90;;;;;;5028087;28;20215;-27
2022/01/12 00:39:29;;;;;;;27.40;17.13;;;3.70;99.90;;;;;;5027926;28;20239;-26
2022/01/12 00:41:57;;;;;;;29.33;17.40;;;3.70;99.90;;;;;;5027136;28;20732;-27
2022/01/12 00:44:32;;;;;;;28.47;17.27;;;3.70;99.90;;;;;;5027929;28;20211;-27
2022/01/12 00:47:00;;;;;;;29.43;17.80;;;3.70;99.90;;;;;;5027047;28;20329;-27
2022/01/12 00:49:27;;;;;;;28.67;16.30;;;3.80;99.90;;;;;;5027895;28;20233;-27
2022/01/12 00:51:55;;;;;;;29.23;17.63;;;3.80;99.90;;;;;;5027681;28;20271;-26
2022/01/12 00:54:25;;;;;;;31.30;17.40;;;3.80;99.90;;;;;;5026161;28;20304;-27
2022/01/12 00:56:52;;;;;;;27.83;17.60;;;3.80;99.90;;;;;;5027275;28;20209;-27
2022/01/12 00:59:22;;;;;;;29.53;17.20;;;3.90;99.90;;;;;;5027739;28;20750;-27
2022/01/12 01:01:58;;;;;;;27.00;17.63;;;3.90;99.90;;;;;;5026711;28;20252;-26
2022/01/12 01:04:26;;;;;;;27.70;16.83;;;3.90;99.90;;;;;;5027861;28;20255;-27
2022/01/12 01:06:56;;;;;;;27.57;17.67;;;3.90;99.90;;;;;;5027252;28;20225;-26
2022/01/12 01:09:23;;;;;;;28.73;17.87;;;3.90;99.90;;;;;;5027649;28;20300;-26
2022/01/12 01:11:51;;;;;;;27.70;17.00;;;4.00;99.90;;;;;;5027184;28;20741;-26
2022/01/12 01:14:33;;;;;;;26.33;17.00;;;4.00;99.90;;;;;;5029252;28;20212;-27
2022/01/12 01:27:51;;;;;;;28.70;16.57;;;4.10;99.90;;;;;;5031102;28;20248;-27
2022/01/12 01:30:18;;;;;;;26.03;16.33;;;4.10;99.90;;;;;;5031219;28;20219;-27
2022/01/12 01:32:46;;;;;;;26.73;16.03;;;4.10;99.90;;;;;;5030611;28;20197;-27
2022/01/12 01:35:14;;;;;;;26.03;16.50;;;4.20;99.90;;;;;;5031242;28;20217;-26
2022/01/12 01:37:42;;;;;;;27.40;17.00;;;4.20;99.90;;;;;;5031152;28;20204;-27
2022/01/12 01:40:11;;;;;;;30.40;16.60;;;4.20;99.90;;;;;;5018142;28;20718;-27
2022/01/12 01:42:56;;;;;;;29.00;16.93;;;4.20;99.90;;;;;;5015497;28;20235;-27
2022/01/12 01:53:55;;;;;;;26.80;15.77;;;4.20;99.90;;;;;;5011446;28;20292;-25
2022/01/12 01:56:24;;;;;;;24.77;16.00;;;4.20;99.90;;;;;;5010535;28;20284;-25
2022/01/12 01:58:52;;;;;;;26.27;16.33;;;4.20;99.90;;;;;;5011055;28;20575;-25
2022/01/12 02:01:20;;;;;;;24.17;14.87;;;4.30;99.90;;;;;;5027257;28;20227;-25
2022/01/12 02:03:47;;;;;;;28.73;15.90;;;4.20;99.90;;;;;;5030905;28;20397;-25
2022/01/12 02:06:16;;;;;;;27.07;16.57;;;4.30;99.90;;;;;;5030426;28;20228;-25
2022/01/12 02:08:45;;;;;;;26.67;16.30;;;4.20;99.90;;;;;;5030589;28;20220;-25
2022/01/12 02:11:13;;;;;;;26.73;16.23;;;4.20;99.90;;;;;;5029857;28;20227;-25
2022/01/12 02:13:42;;;;;;;28.77;16.43;;;4.30;99.90;;;;;;5030696;28;20208;-25
2022/01/12 02:16:09;;;;;;;24.47;15.30;;;4.30;99.90;;;;;;5029871;28;20422;-25
2022/01/12 02:19:03;;;;;;;24.37;15.30;;;4.30;99.90;;;;;;5029840;28;20228;-25
2022/01/12 02:40:40;;;;;;;24.23;15.40;;;4.30;99.90;;;;;;5014635;28;20206;-26
2022/01/12 02:43:18;;;;;;;25.93;16.07;;;4.30;99.90;;;;;;5010154;28;20587;-26
2022/01/12 02:50:42;;;;;;;24.67;14.70;;;4.40;99.90;;;;;;5029484;28;20207;-26
2022/01/12 02:51:34;;;;;;;24.70;15.23;;;4.40;99.90;;;;;;5029595;28;20564;-26
2022/01/12 02:54:08;;;;;;;28.87;15.93;;;4.40;99.90;;;;;;5029796;28;20682;-26
2022/01/12 02:56:36;;;;;;;27.90;15.90;;;4.40;99.90;;;;;;5029259;28;20229;-26
2022/01/12 02:59:03;;;;;;;25.97;15.97;;;4.40;99.90;;;;;;5029796;28;20626;-26
2022/01/12 03:04:10;;;;;;;22.67;15.40;;;4.50;99.90;;;;;;5029750;28;20656;-26
2022/01/12 03:06:39;;;;;;;22.50;14.03;;;4.50;99.90;;;;;;5029518;28;20197;-26
2022/01/12 03:09:13;;;;;;;24.10;15.33;;;4.50;99.90;;;;;;5029596;28;20667;-26
2022/01/12 03:11:40;;;;;;;24.33;14.53;;;4.50;99.90;;;;;;5029096;28;20213;-26
2022/01/12 03:14:10;;;;;;;23.93;15.20;;;4.50;99.90;;;;;;5029295;28;20235;-26
2022/01/12 03:16:37;;;;;;;25.73;16.83;;;4.50;99.90;;;;;;5027626;28;20205;-26
2022/01/12 03:19:09;;;;;;;23.93;14.97;;;4.50;99.90;;;;;;5028615;28;20633;-26
2022/01/12 03:21:38;;;;;;;23.37;14.33;;;4.50;99.90;;;;;;5028112;28;20312;-26
2022/01/12 03:24:08;;;;;;;24.77;14.50;;;4.60;99.90;;;;;;5029814;28;20209;-26
2022/01/12 03:26:35;;;;;;;25.97;15.23;;;4.60;99.90;;;;;;5027452;28;20292;-26
2022/01/12 03:29:05;;;;;;;26.20;15.13;;;4.60;99.90;;;;;;5028092;28;20687;-26
2022/01/12 03:31:35;;;;;;;25.23;15.70;;;4.60;99.90;;;;;;5028517;28;20211;-26
2022/01/12 03:34:40;;;;;;;23.67;15.20;;;4.60;99.90;;;;;;5030131;28;20196;-27
2022/01/12 03:40:06;;;;;;;23.47;13.97;;;4.60;99.90;;;;;;5027011;28;20193;-26
2022/01/12 03:42:33;;;;;;;24.23;14.73;;;4.60;99.90;;;;;;5026300;28;20224;-26
2022/01/12 03:45:01;;;;;;;23.83;14.93;;;4.60;99.90;;;;;;5027773;28;20216;-26
2022/01/12 03:47:29;;;;;;;24.50;15.03;;;4.60;99.90;;;;;;5026509;28;20208;-25
2022/01/12 03:49:56;;;;;;;24.87;15.27;;;4.70;99.90;;;;;;5028947;28;20241;-25
2022/01/12 03:52:25;;;;;;;23.07;14.53;;;4.60;99.90;;;;;;5028876;28;20613;-24
2022/01/12 03:54:52;;;;;;;24.33;15.33;;;4.70;99.90;;;;;;5029149;28;20217;-24
2022/01/12 03:57:22;;;;;;;25.33;14.97;;;4.70;99.90;;;;;;5028508;28;20211;-24
2022/01/12 03:59:49;;;;;;;25.77;15.13;;;4.70;99.90;;;;;;5028858;28;20581;-24
2022/01/12 04:02:19;;;;;;;23.70;15.70;;;4.70;99.90;;;;;;5028111;28;20225;-25
2022/01/12 04:05:08;;;;;;;21.70;13.90;;;4.70;99.90;;;;;;5028990;28;20212;-24
2022/01/12 04:10:21;;;;;;;23.97;15.17;;;4.70;99.90;;;;;;5009118;28;20205;-25
2022/01/12 04:12:52;;;;;;;27.90;15.60;;;4.70;99.90;;;;;;5009723;28;20200;-24
2022/01/12 04:15:20;;;;;;;25.70;15.13;;;4.70;99.90;;;;;;5008168;28;20244;-25
2022/01/12 04:17:49;;;;;;;26.23;15.63;;;4.70;99.90;;;;;;5009053;28;20202;-25
2022/01/12 04:20:16;;;;;;;24.80;15.53;;;4.70;99.90;;;;;;5014860;28;20593;-24
2022/01/12 04:25:29;;;;;;;25.47;15.77;;;4.70;99.90;;;;;;5028597;28;20215;-25
2022/01/12 04:27:57;;;;;;;24.17;15.50;;;4.70;99.90;;;;;;5029037;28;20216;-25
2022/01/12 04:30:24;;;;;;;27.80;15.57;;;4.70;99.90;;;;;;5027463;28;20266;-25
2022/01/12 04:32:51;;;;;;;21.93;15.30;;;4.70;99.90;;;;;;5026679;28;20216;-25
2022/01/12 04:35:24;;;;;;;24.70;15.93;;;4.80;99.90;;;;;;5028529;28;20217;-24
2022/01/12 04:37:51;;;;;;;26.37;16.03;;;4.80;99.90;;;;;;5026883;28;20707;-24
2022/01/12 04:40:18;;;;;;;26.07;15.87;;;4.80;99.90;;;;;;5027528;28;20212;-25
2022/01/12 04:42:46;;;;;;;25.53;15.97;;;4.80;99.90;;;;;;5008471;28;20225;-24
2022/01/12 04:45:31;;;;;;;24.20;14.73;;;4.80;99.90;;;;;;5023365;28;20221;-24
2022/01/12 04:48:07;;;;;;;27.90;17.10;;;4.80;99.90;;;;;;5007662;28;20637;-24
2022/01/12 04:50:37;;;;;;;29.60;16.87;;;4.80;99.90;;;;;;5026430;28;20228;-24
2022/01/12 04:53:05;;;;;;;26.13;16.33;;;4.80;99.90;;;;;;5027998;28;20212;-24
2022/01/12 04:55:32;;;;;;;30.40;16.63;;;4.80;99.90;;;;;;5027634;28;20228;-24
2022/01/12 04:58:00;;;;;;;28.13;16.90;;;4.80;99.90;;;;;;5026409;28;20627;-24
2022/01/12 05:00:29;;;;;;;27.17;16.90;;;4.80;99.90;;;;;;5028169;28;20225;-24
2022/01/12 05:13:49;;;;;;;27.53;17.33;;;4.80;99.90;;;;;;5027681;28;20204;-24
2022/01/12 05:16:18;;;;;;;25.20;16.60;;;4.80;99.90;;;;;;5026984;28;20695;-24
2022/01/12 05:18:48;;;;;;;26.63;16.97;;;4.80;99.90;;;;;;5026240;28;20200;-24
2022/01/12 05:21:19;;;;;;;24.47;16.23;;;4.80;99.90;;;;;;5027502;28;20356;-24
2022/01/12 05:23:47;;;;;;;26.53;17.10;;;4.80;99.90;;;;;;5027444;28;20231;-24
2022/01/12 05:26:14;;;;;;;30.73;17.30;;;4.80;99.90;;;;;;5027097;28;20223;-24
2022/01/12 05:28:42;;;;;;;26.27;15.80;;;4.80;99.90;;;;;;5027308;28;20296;-24
2022/01/12 05:31:11;;;;;;;26.93;17.47;;;4.90;99.90;;;;;;5027014;28;20304;-24
2022/01/12 05:33:41;;;;;;;27.80;16.30;;;4.90;99.90;;;;;;5026958;28;20312;-24
2022/01/12 05:36:08;;;;;;;30.07;17.53;;;4.90;99.90;;;;;;5027537;28;20336;-24
2022/01/12 05:38:35;;;;;;;23.27;15.67;;;4.90;99.90;;;;;;5025933;28;20652;-24
2022/01/12 05:41:05;;;;;;;29.20;17.70;;;4.90;99.90;;;;;;5020590;28;20244;-24
2022/01/12 05:43:37;;;;;;;29.10;17.00;;;4.90;99.90;;;;;;5007402;28;20217;-25
2022/01/12 05:46:14;;;;;;;28.07;17.10;;;4.90;99.90;;;;;;5018662;28;20322;-24
2022/01/12 05:51:33;;;;;;;27.37;17.87;;;4.90;99.90;;;;;;5026811;28;20233;-24
2022/01/12 05:54:02;;;;;;;28.33;17.93;;;4.90;99.90;;;;;;5027441;28;20625;-24
2022/01/12 05:56:32;;;;;;;27.03;16.97;;;5.00;99.90;;;;;;5026496;28;20349;-25
2022/01/12 05:59:02;;;;;;;26.97;17.23;;;5.00;99.90;;;;;;5027172;28;20251;-25
2022/01/12 06:01:29;;;;;;;27.57;17.33;;;5.00;99.90;;;;;;5029952;28;20209;-26
2022/01/12 06:03:57;;;;;;;29.13;17.67;;;5.00;99.90;;;;;;5030398;28;20233;-26
2022/01/12 06:06:24;;;;;;;28.87;17.33;;;5.00;99.90;;;;;;5028854;28;20721;-26
2022/01/12 06:08:52;;;;;;;25.53;17.40;;;5.00;99.90;;;;;;5029213;28;20571;-26
2022/01/12 06:11:23;;;;;;;25.90;16.77;;;5.00;99.90;;;;;;5029728;28;20213;-26
2022/01/12 06:13:52;;;;;;;27.27;16.07;;;5.10;99.90;;;;;;5030492;28;20311;-26
2022/01/12 06:16:21;;;;;;;26.17;17.07;;;5.10;99.90;;;;;;5029393;28;20245;-26
2022/01/12 06:18:49;;;;;;;26.93;17.07;;;5.10;99.90;;;;;;5030239;28;20755;-26
2022/01/12 06:21:18;;;;;;;28.43;17.30;;;5.10;99.90;;;;;;5028482;28;20713;-26
2022/01/12 06:23:48;;;;;;;28.87;17.73;;;5.10;99.90;;;;;;5029957;28;20223;-26
2022/01/12 06:26:15;;;;;;;28.03;16.77;;;5.10;99.90;;;;;;5029908;28;20208;-26
2022/01/12 06:28:53;;;;;;;25.23;16.33;;;5.10;99.90;;;;;;5029967;28;20201;-26
2022/01/12 06:31:26;;;;;;;28.57;17.33;;;5.10;99.90;;;;;;5029526;28;20193;-26
2022/01/12 06:33:53;;;;;;;24.67;15.80;;;5.10;99.90;;;;;;5030092;28;20774;-26
2022/01/12 06:36:22;;;;;;;29.13;16.17;;;5.10;99.90;;;;;;5030367;28;20211;-26
2022/01/12 06:38:49;;;;;;;24.53;16.10;;;5.10;99.90;;;;;;5030045;28;20232;-26
2022/01/12 06:41:17;;;;;;;24.90;16.30;;;5.20;99.90;;;;;;5021089;28;20194;-26
2022/01/12 06:43:45;;;;;;;23.07;16.17;;;5.20;99.90;;;;;;5024919;28;20233;-26
2022/01/12 06:46:19;;;;;;;28.47;16.37;;;5.20;99.90;;;;;;5009509;28;20198;-26
2022/01/12 06:48:46;;;;;;;25.87;15.97;;;5.20;99.90;;;;;;5009798;28;20239;-26
2022/01/12 06:51:14;;;;;;;26.57;16.30;;;5.20;99.90;;;;;;5024516;28;20237;-26
2022/01/12 06:53:42;;;;;;;26.77;16.43;;;5.20;99.90;;;;;;5018803;28;20295;-26
2022/01/12 06:56:09;;;;;;;25.10;17.47;;;5.20;99.90;;;;;;5029269;28;20208;-26
2022/01/12 06:58:41;;;;;;;26.80;16.67;;;5.30;99.90;;;;;;5029507;28;20576;-26
2022/01/12 07:01:11;;;;;;;25.10;16.13;;;5.30;99.90;;;;;;5029443;28;20672;-26
2022/01/12 07:03:39;;;;;;;24.73;15.77;;;5.30;99.90;;;;;;5029197;28;20224;-26
2022/01/12 07:06:08;;;;;;;25.67;15.97;;;5.30;99.90;;;;;;5029468;28;20201;-26
2022/01/12 07:08:38;;;;;;;28.80;15.93;;;5.30;99.90;;;;;;5029522;28;20216;-26
2022/01/12 07:11:05;;;;;;;27.53;17.30;;;5.30;99.90;;;;;;5027125;28;20201;-26
2022/01/12 07:13:32;;;;;;;27.00;16.87;;;5.30;99.90;;;;;;5028994;28;20560;-26
2022/01/12 07:16:00;;;;;;;25.03;17.83;;;5.30;99.90;;;;;;5029092;28;20955;-26
2022/01/12 07:18:29;;;;;;;28.00;17.47;;;5.30;99.90;;;;;;5028859;28;20216;-26
2022/01/12 07:20:56;;;;;;;29.67;18.33;;;5.30;99.90;;;;;;5029022;28;20729;-26
2022/01/12 07:23:25;;;;;;;29.13;16.90;;;5.30;99.90;;;;;;5029037;28;20217;-26
2022/01/12 07:25:55;;;;;;;26.70;17.67;;;5.30;99.90;;;;;;5027067;28;20612;-26
2022/01/12 07:28:25;;;;;;;28.90;18.17;;;5.30;99.90;;;;;;5028605;28;20224;-26
2022/01/12 07:30:52;;;;;;;29.13;17.63;;;5.30;99.90;;;;;;5028621;28;20208;-26
2022/01/12 07:33:20;;;;;;;26.70;17.70;;;5.30;99.90;;;;;;5028375;28;20228;-26
2022/01/12 07:35:48;;;;;;;31.37;18.97;;;5.30;99.90;;;;;;5028837;28;21049;-26
2022/01/12 07:38:17;;;;;;;31.43;18.57;;;5.30;99.90;;;;;;5028844;28;20211;-26
2022/01/12 07:40:45;;;;;;;31.83;18.97;;;5.30;99.90;;;;;;5028576;28;20212;-26
2022/01/12 07:43:12;;;;;;;26.30;16.73;;;5.30;99.90;;;;;;5028449;28;20217;-26
2022/01/12 07:45:39;;;;;;;28.57;17.23;;;5.40;99.90;;;;;;5028519;28;20221;-26
2022/01/12 07:48:07;;;;;;;33.23;18.20;;;5.40;99.90;;;;;;5027693;28;20197;-26
2022/01/12 07:50:34;;;;;;;32.03;18.67;;;5.40;99.90;;;;;;5028549;28;20375;-26
2022/01/12 07:53:03;;;;;;;28.83;17.67;;;5.40;99.90;;;;;;5028175;28;20216;-26
2022/01/12 07:55:33;;;;;;;30.70;18.27;;;5.40;99.90;;;;;;5027896;28;20201;-26
2022/01/12 07:58:00;;;;;;;33.97;18.20;;;5.40;99.90;;;;;;5028393;28;20213;-26
2022/01/12 08:00:32;;;;;;;30.30;18.70;;;5.50;99.90;;;;;;5028132;28;20247;-26
2022/01/12 08:02:59;;;;;;;30.47;17.90;;;5.40;99.90;;;;;;5027613;28;20213;-26
2022/01/12 08:05:27;;;;;;;34.50;18.83;;;5.50;99.90;;;;;;5028006;28;20769;-26
2022/01/12 08:07:56;;;;;;;34.37;19.13;;;5.50;99.90;;;;;;5028556;28;20292;-24
2022/01/12 08:10:26;;;;;;;32.90;18.33;;;5.50;99.90;;;;;;5021376;28;20202;-24
2022/01/12 08:12:53;;;;;;;32.20;19.70;;;5.50;99.90;;;;;;5008553;28;20200;-24
2022/01/12 08:15:20;;;;;;;34.07;18.60;;;5.50;99.90;;;;;;5008265;28;20208;-24
2022/01/12 08:17:48;;;;;;;32.90;19.33;;;5.50;99.90;;;;;;5008962;28;20702;-24
2022/01/12 08:20:18;;;;;;;32.13;18.20;;;5.50;99.90;;;;;;5027776;28;20244;-24
2022/01/12 08:22:48;;;;;;;29.40;17.60;;;5.50;99.90;;;;;;5027472;28;20296;-24
2022/01/12 08:25:15;;;;;;;31.00;18.90;;;5.50;99.90;;;;;;5027624;28;20668;-24
2022/01/12 08:27:47;;;;;;;32.90;18.43;;;5.60;99.90;;;;;;5028106;28;20209;-25
2022/01/12 08:30:27;;;;;;;35.23;19.33;;;5.60;99.90;;;;;;5027629;28;20679;-24
2022/01/12 08:32:55;;;;;;;33.93;18.97;;;5.60;99.90;;;;;;5027379;28;20216;-24
2022/01/12 08:35:23;;;;;;;33.73;19.80;;;5.60;99.90;;;;;;5026048;28;20217;-24
2022/01/12 08:37:53;;;;;;;36.17;19.40;;;5.60;99.90;;;;;;5027702;28;20201;-24
2022/01/12 08:40:21;;;;;;;34.03;19.87;;;5.60;99.90;;;;;;5027169;28;20212;-24
2022/01/12 08:42:50;;;;;;;36.17;19.97;;;5.60;99.90;;;;;;5021295;28;20225;-24
2022/01/12 08:45:18;;;;;;;34.20;19.43;;;5.60;99.90;;;;;;5006307;28;20270;-24
2022/01/12 08:47:46;;;;;;;38.50;19.97;;;5.60;99.90;;;;;;5005551;28;20217;-25
2022/01/12 08:50:16;;;;;;;40.27;20.60;;;5.60;99.90;;;;;;5007553;28;20237;-24
2022/01/12 08:52:46;;;;;;;39.03;21.77;;;5.60;99.90;;;;;;5017175;28;20650;-24
2022/01/12 08:55:18;;;;;;;39.40;20.93;;;5.70;99.90;;;;;;5027054;28;20201;-24
2022/01/12 08:57:46;;;;;;;43.43;21.67;;;5.70;99.90;;;;;;5027189;28;20213;-24
2022/01/12 09:00:15;;;;;;;40.33;21.77;;;5.70;99.90;;;;;;5027461;28;20232;-24
2022/01/12 09:02:42;;;;;;;41.17;21.07;;;5.70;99.90;;;;;;5025237;28;20213;-24
2022/01/12 09:05:13;;;;;;;38.70;19.80;;;5.70;99.90;;;;;;5027304;28;20325;-24
2022/01/12 09:07:41;;;;;;;41.47;21.20;;;5.70;99.90;;;;;;5027488;28;20263;-24
2022/01/12 09:10:09;;;;;;;42.10;20.70;;;5.70;99.90;;;;;;5027189;28;20671;-24
2022/01/12 09:12:37;;;;;;;35.23;20.07;;;5.70;99.90;;;;;;5025817;28;20893;-24
2022/01/12 09:15:13;;;;;;;39.17;19.73;;;5.70;99.90;;;;;;5027561;28;20263;-24
2022/01/12 09:17:42;;;;;;;40.10;19.57;;;5.80;99.90;;;;;;5024919;28;20204;-24
2022/01/12 09:20:13;;;;;;;38.53;19.83;;;5.80;99.90;;;;;;5027430;28;20284;-24
2022/01/12 09:22:40;;;;;;;38.10;19.83;;;5.80;99.90;;;;;;5027205;28;20234;-24
2022/01/12 09:25:09;;;;;;;36.43;20.07;;;5.80;99.90;;;;;;5027421;28;20737;-26
2022/01/12 09:27:41;;;;;;;41.67;19.80;;;5.90;99.90;;;;;;5023460;28;20290;-26
2022/01/12 09:30:11;;;;;;;41.03;21.30;;;5.90;99.90;;;;;;5025643;28;20220;-26
2022/01/12 09:32:39;;;;;;;42.67;20.90;;;5.90;99.90;;;;;;5025200;28;20258;-26
2022/01/12 09:35:08;;;;;;;38.07;20.30;;;5.90;99.90;;;;;;5028492;28;20205;-26
2022/01/12 09:37:38;;;;;;;37.33;20.07;;;5.90;99.90;;;;;;5029247;28;20221;-26
2022/01/12 09:40:09;;;;;;;36.33;20.20;;;5.90;99.90;;;;;;5030867;28;20303;-26
2022/01/12 09:42:37;;;;;;;36.10;20.30;;;6.00;99.90;;;;;;5025881;28;20213;-26
2022/01/12 09:45:07;;;;;;;41.77;21.00;;;6.00;99.90;;;;;;5045571;28;20280;-26
2022/01/12 09:47:38;;;;;;;43.47;20.57;;;6.00;99.90;;;;;;5045154;28;20203;-26
2022/01/12 09:50:06;;;;;;;46.40;22.07;;;6.10;99.90;;;;;;5030603;28;20241;-26
2022/01/12 09:52:35;;;;;;;49.67;22.10;;;6.10;99.90;;;;;;5030493;28;20201;-26
2022/01/12 09:55:04;;;;;;;42.90;21.27;;;6.10;99.90;;;;;;5030553;28;20221;-26
2022/01/12 09:57:34;;;;;;;44.90;21.80;;;6.10;99.90;;;;;;5030426;28;20276;-26
2022/01/12 10:00:04;;;;;;;46.37;22.43;;;6.10;99.90;;;;;;5030963;28;20734;-24
2022/01/12 10:02:32;;;;;;;48.03;23.17;;;6.10;99.90;;;;;;5029717;28;20209;-24
2022/01/12 10:05:05;;;;;;;46.87;22.93;;;6.20;99.90;;;;;;5030464;28;20672;-24
2022/01/12 10:07:38;;;;;;;46.20;22.20;;;6.20;99.90;;;;;;5030595;28;20209;-24
2022/01/12 10:10:14;;;;;;;46.50;22.20;;;6.20;99.90;;;;;;5030659;28;20292;-24
2022/01/12 10:12:53;;;;;;;43.33;21.43;;;6.20;99.90;;;;;;5029811;28;20229;-24
2022/01/12 10:15:21;;;;;;;47.80;22.93;;;6.20;99.90;;;;;;5030414;28;20259;-24
2022/01/12 10:17:49;;;;;;;44.27;22.10;;;6.30;99.90;;;;;;5029677;28;20251;-24
2022/01/12 10:20:21;;;;;;;41.83;22.30;;;6.30;99.90;;;;;;5030288;28;20271;-25
2022/01/12 10:22:59;;;;;;;48.73;23.10;;;6.30;99.90;;;;;;5030467;28;20258;-24
2022/01/12 10:25:29;;;;;;;45.00;23.10;;;6.40;99.90;;;;;;5029416;28;20220;-24
2022/01/12 10:28:10;;;;;;;51.97;24.87;;;6.40;99.90;;;;;;5029896;28;20201;-24
2022/01/12 10:30:37;;;;;;;52.27;23.20;;;6.40;99.90;;;;;;5029984;28;20288;-24
2022/01/12 10:33:09;;;;;;;55.07;22.93;;;6.40;99.90;;;;;;5029226;28;20201;-24
2022/01/12 10:35:43;;;;;;;55.20;24.53;;;6.50;99.90;;;;;;5029773;28;20209;-24
2022/01/12 10:38:12;;;;;;;46.17;22.67;;;6.50;99.90;;;;;;5029671;28;20252;-24
2022/01/12 10:40:46;;;;;;;51.47;22.73;;;6.60;99.90;;;;;;5029551;28;20205;-25
2022/01/12 10:43:29;;;;;;;54.47;25.47;;;6.60;99.90;;;;;;5020400;28;20723;-24
2022/01/12 10:45:58;;;;;;;54.10;24.37;;;6.70;99.90;;;;;;5009355;28;20329;-24
2022/01/12 10:48:52;;;;;;;61.63;26.13;;;6.70;99.90;;;;;;5009482;28;20731;-24
2022/01/12 10:51:25;;;;;;;55.60;25.13;;;6.80;99.90;;;;;;5027883;28;20232;-24
2022/01/12 10:53:59;;;;;;;55.90;25.00;;;6.80;99.90;;;;;;5029501;28;20193;-24
2022/01/12 10:56:27;;;;;;;49.30;24.37;;;6.80;99.90;;;;;;5029075;28;20294;-24
2022/01/12 10:58:57;;;;;;;51.80;24.77;;;6.90;99.90;;;;;;5027942;28;20255;-24
2022/01/12 11:01:29;;;;;;;55.00;25.87;;;6.90;99.90;;;;;;5029367;28;20211;-24
2022/01/12 11:04:00;;;;;;;51.40;24.73;;;6.90;99.90;;;;;;5028613;28;20697;-24
2022/01/12 11:06:29;;;;;;;48.83;24.73;;;7.00;99.90;;;;;;5029552;28;20196;-24
2022/01/12 11:08:57;;;;;;;48.87;24.97;;;7.00;99.90;;;;;;5029072;28;20232;-24
2022/01/12 11:11:26;;;;;;;53.63;25.00;;;7.10;99.90;;;;;;5029099;28;20577;-24
2022/01/12 11:13:53;;;;;;;54.07;25.37;;;7.10;99.90;;;;;;5029207;28;20236;-24
2022/01/12 11:16:27;;;;;;;57.43;25.83;;;7.10;99.90;;;;;;5029216;28;20691;-24
2022/01/12 11:18:59;;;;;;;46.93;24.43;;;7.20;99.90;;;;;;5028539;28;20205;-24
2022/01/12 11:21:36;;;;;;;44.33;24.03;;;7.20;99.90;;;;;;5029046;28;20228;-24
2022/01/12 11:24:05;;;;;;;47.30;23.57;;;7.30;99.90;;;;;;5028956;28;22086;-24
2022/01/12 11:26:35;;;;;;;49.90;24.93;;;7.30;99.90;;;;;;5028762;28;20595;-24
2022/01/12 11:29:04;;;;;;;58.50;27.50;;;7.30;99.90;;;;;;5028894;28;20205;-24
2022/01/12 11:31:35;;;;;;;59.90;27.37;;;7.40;99.90;;;;;;5027573;28;20283;-26
2022/01/12 11:34:05;;;;;;;55.37;27.43;;;7.40;99.90;;;;;;5026526;28;20243;-26
2022/01/12 11:36:39;;;;;;;57.50;27.10;;;7.40;99.90;;;;;;5028529;28;20279;-26
2022/01/12 11:39:11;;;;;;;55.17;27.20;;;7.40;99.90;;;;;;5026978;28;20205;-26
2022/01/12 11:41:44;;;;;;;57.13;27.67;;;7.40;99.90;;;;;;5010552;28;20216;-26
2022/01/12 11:44:15;;;;;;;56.40;28.30;;;7.50;99.90;;;;;;5026138;28;20288;-26
2022/01/12 11:46:53;;;;;;;53.10;27.07;;;7.50;99.90;;;;;;5008653;28;20288;-26
2022/01/12 11:49:28;;;;;;;51.13;25.77;;;7.50;99.90;;;;;;5008065;28;20221;-27
2022/01/12 11:51:58;;;;;;;50.40;26.13;;;7.50;99.90;;;;;;5008816;28;20228;-26
2022/01/12 11:54:43;;;;;;;49.40;25.90;;;7.50;99.90;;;;;;5026506;28;20207;-26
2022/01/12 11:57:13;;;;;;;46.83;25.80;;;7.50;99.90;;;;;;5025840;28;20217;-26
2022/01/12 12:00:09;;;;;;;49.10;25.57;;;7.50;99.90;;;;;;5028180;28;20228;-26
2022/01/12 12:02:39;;;;;;;55.83;28.23;;;7.60;99.90;;;;;;5027533;28;20292;-26
2022/01/12 12:05:10;;;;;;;56.50;27.73;;;7.60;99.90;;;;;;5027936;28;20695;-26
2022/01/12 12:07:53;;;;;;;54.30;28.17;;;7.60;99.90;;;;;;5027979;28;20247;-26
2022/01/12 12:10:23;;;;;;;54.30;27.23;;;7.60;99.90;;;;;;5027035;28;20690;-26
2022/01/12 12:12:52;;;;;;;58.30;28.17;;;7.60;99.90;;;;;;5023654;28;20216;-26
2022/01/12 12:15:23;;;;;;;53.00;27.03;;;7.50;99.90;;;;;;5008832;28;20654;-26
2022/01/12 12:17:53;;;;;;;58.77;28.73;;;7.50;99.90;;;;;;5025997;28;20759;-26
2022/01/12 12:20:21;;;;;;;57.20;28.03;;;7.50;99.90;;;;;;5028236;28;20285;-26
2022/01/12 12:22:54;;;;;;;58.10;30.53;;;7.50;99.90;;;;;;5026342;28;21016;-26
2022/01/12 12:25:23;;;;;;;56.03;27.43;;;7.50;99.90;;;;;;5027733;28;20306;-26
2022/01/12 12:27:56;;;;;;;51.07;27.13;;;7.60;99.90;;;;;;5028124;28;20208;-26
2022/01/12 12:30:28;;;;;;;52.07;26.60;;;7.60;99.90;;;;;;5026133;28;20710;-26
2022/01/12 12:33:02;;;;;;;48.57;26.77;;;7.60;99.90;;;;;;5026876;28;20213;-26
2022/01/12 12:35:34;;;;;;;53.87;29.03;;;7.60;99.90;;;;;;5028071;28;20270;-26
2022/01/12 12:38:04;;;;;;;55.50;28.23;;;7.60;99.90;;;;;;5026237;28;20233;-26
2022/01/12 12:40:36;;;;;;;62.47;30.43;;;7.60;99.90;;;;;;5026021;28;20371;-26
2022/01/12 12:43:06;;;;;;;59.67;30.63;;;7.70;99.90;;;;;;5027778;28;20204;-26
2022/01/12 12:45:37;;;;;;;64.33;29.60;;;7.70;99.90;;;;;;5027705;28;20265;-26
2022/01/12 12:48:06;;;;;;;59.60;31.10;;;7.70;99.90;;;;;;5026796;28;20196;-26
2022/01/12 12:50:36;;;;;;;58.47;30.17;;;7.70;99.90;;;;;;5027241;28;20248;-26
2022/01/12 12:53:08;;;;;;;61.37;30.47;;;7.70;99.90;;;;;;5027334;28;20615;-26
2022/01/12 12:55:38;;;;;;;54.07;29.43;;;7.70;99.90;;;;;;5027246;28;20701;-26
2022/01/12 12:58:06;;;;;;;62.30;30.90;;;7.80;99.90;;;;;;5025911;28;20209;-26
2022/01/12 13:00:35;;;;;;;62.40;29.80;;;7.80;99.90;;;;;;5027424;28;20231;-24
2022/01/12 13:03:04;;;;;;;60.07;28.70;;;7.80;99.90;;;;;;5026646;28;20212;-24
2022/01/12 13:05:35;;;;;;;60.63;27.53;;;7.80;99.90;;;;;;5027216;28;20236;-24
2022/01/12 13:08:03;;;;;;;55.17;27.77;;;7.80;99.90;;;;;;5019233;28;20209;-24
2022/01/12 13:10:33;;;;;;;51.13;25.03;;;7.80;99.90;;;;;;5031110;28;20208;-25
2022/01/12 13:13:04;;;;;;;49.13;24.57;;;7.80;99.90;;;;;;5031495;28;20197;-24
2022/01/12 13:15:37;;;;;;;48.10;25.37;;;7.80;99.90;;;;;;5031777;28;20315;-24
2022/01/12 13:18:08;;;;;;;45.33;24.47;;;7.80;99.90;;;;;;5013476;28;20215;-24
2022/01/12 13:23:29;;;;;;;45.47;22.33;;;7.80;99.90;;;;;;5028892;28;20200;-24
2022/01/12 13:26:01;;;;;;;45.63;23.30;;;7.70;99.90;;;;;;5030696;28;20726;-24
2022/01/12 13:28:28;;;;;;;42.00;22.57;;;7.70;99.90;;;;;;5029439;28;20597;-24
2022/01/12 13:30:58;;;;;;;43.33;22.50;;;7.70;99.90;;;;;;5031116;28;20594;-24
2022/01/12 13:33:37;;;;;;;47.07;24.83;;;7.70;99.90;;;;;;5030565;28;20260;-24
2022/01/12 13:36:22;;;;;;;48.43;25.53;;;7.70;99.90;;;;;;5031256;28;20219;-24
2022/01/12 13:39:01;;;;;;;51.30;26.37;;;7.70;99.90;;;;;;5029555;28;20208;-24
2022/01/12 13:41:32;;;;;;;55.47;27.37;;;7.60;99.90;;;;;;5030736;28;20218;-24
2022/01/12 13:44:07;;;;;;;51.43;26.67;;;7.60;99.90;;;;;;5031187;28;20209;-24
2022/01/12 13:46:39;;;;;;;53.07;27.57;;;7.60;99.90;;;;;;5029307;28;20235;-24
2022/01/12 13:51:38;;;;;;;53.40;27.60;;;7.60;99.90;;;;;;5030526;28;20208;-24
2022/01/12 13:54:10;;;;;;;58.10;28.80;;;7.60;99.90;;;;;;5025750;28;20217;-24
2022/01/12 13:56:45;;;;;;;55.17;28.57;;;7.60;99.90;;;;;;5010695;28;20229;-24
2022/01/12 13:59:18;;;;;;;56.93;27.87;;;7.60;99.90;;;;;;5038799;28;20299;-24
2022/01/12 14:01:47;;;;;;;62.70;29.37;;;7.60;99.90;;;;;;5030681;28;20209;-24
2022/01/12 14:04:38;;;;;;;60.07;30.50;;;7.60;99.90;;;;;;5029463;28;20760;-24
2022/01/12 14:07:07;;;;;;;54.57;28.40;;;7.60;99.90;;;;;;5030597;28;20288;-24
2022/01/12 14:09:38;;;;;;;58.63;28.63;;;7.60;99.90;;;;;;5030388;28;20201;-24
2022/01/12 14:12:16;;;;;;;57.80;28.43;;;7.60;99.90;;;;;;5030202;28;20201;-24